Time;durP1;ratioP1;P1;durP2;ratioP2;P2;SDS_P1;SDS_P2;PMS_P1;PMS_P2;Temp;Humidity;BMP_temperature;BMP_pressure;BME280_temperature;BME280_humidity;BME280_pressure;Samples;Min_cycle;Max_cycle;Signal;HPM_P1;HPM_P2
2021/11/30 05:56:15;;;;;;;1.00;0.90;;;;;;;-3.50;53.82;92432.63;6150841;22;20029;-74
2021/11/30 05:58:43;;;;;;;0.85;0.85;;;;;;;-3.56;54.01;92424.00;6125067;22;20096;-78
2021/11/30 06:01:31;;;;;;;1.10;1.00;;;;;;;-3.48;53.63;92422.97;6099537;23;20044;-77
2021/11/30 06:03:58;;;;;;;0.98;0.90;;;;;;;-3.48;53.54;92425.53;6101185;23;20014;-78
2021/11/30 06:06:42;;;;;;;1.10;1.00;;;;;;;-3.46;53.57;92425.34;6100494;23;20321;-76
2021/11/30 06:09:09;;;;;;;0.93;0.93;;;;;;;-3.47;54.24;92426.31;6125443;23;20018;-77
2021/11/30 06:11:35;;;;;;;0.90;0.90;;;;;;;-3.50;54.44;92431.84;6125132;23;20017;-75
2021/11/30 06:14:03;;;;;;;0.80;0.80;;;;;;;-3.49;54.41;92433.41;6100305;23;20018;-77
2021/11/30 06:16:29;;;;;;;1.80;1.20;;;;;;;-3.51;54.47;92441.31;6125059;23;20006;-75
2021/11/30 06:18:55;;;;;;;2.95;1.52;;;;;;;-3.51;53.79;92440.50;6124368;23;20075;-75
2021/11/30 06:21:21;;;;;;;2.15;1.48;;;;;;;-3.49;53.66;92448.75;6100441;23;20006;-75
2021/11/30 06:23:52;;;;;;;1.48;1.10;;;;;;;-3.49;54.29;92446.22;6125109;23;20529;-75
2021/11/30 06:26:18;;;;;;;4.65;2.33;;;;;;;-3.46;54.59;92450.94;6124052;23;20096;-76
2021/11/30 06:29:20;;;;;;;4.32;2.00;;;;;;;-3.49;54.00;92449.56;6151189;23;20005;-75
2021/11/30 06:31:46;;;;;;;1.10;1.00;;;;;;;-3.51;54.20;92451.56;6101156;23;20448;-75
2021/11/30 06:34:12;;;;;;;1.38;1.00;;;;;;;-3.51;54.31;92450.75;6125041;23;20005;-75
2021/11/30 06:36:58;;;;;;;1.33;0.95;;;;;;;-3.51;53.37;92455.84;6075759;23;20024;-76
2021/11/30 06:39:25;;;;;;;1.08;1.00;;;;;;;-3.50;53.03;92457.44;6150719;23;20017;-76
2021/11/30 06:41:53;;;;;;;1.10;1.00;;;;;;;-3.47;52.32;92459.59;6124841;23;20002;-76
2021/11/30 06:44:18;;;;;;;1.20;1.05;;;;;;;-3.42;52.62;92467.47;6148899;23;20025;-76
2021/11/30 06:46:46;;;;;;;0.90;0.90;;;;;;;-3.40;52.54;92473.16;6149778;23;20374;-76
2021/11/30 06:49:12;;;;;;;1.52;1.13;;;;;;;-3.32;51.42;92477.28;6149847;23;20062;-76
2021/11/30 06:51:38;;;;;;;2.40;1.45;;;;;;;-3.28;51.37;92476.69;6150118;23;20001;-75
2021/11/30 06:54:04;;;;;;;1.58;1.20;;;;;;;-3.24;50.95;92477.84;6149223;23;20024;-75
2021/11/30 06:56:29;;;;;;;0.90;0.90;;;;;;;-3.22;51.37;92483.56;6150146;23;20001;-75
2021/11/30 06:58:55;;;;;;;2.03;1.30;;;;;;;-3.18;51.07;92483.94;6149429;23;20014;-74
2021/11/30 07:01:20;;;;;;;2.70;1.50;;;;;;;-3.16;51.12;92487.84;6098906;23;20024;-74
2021/11/30 07:03:48;;;;;;;2.05;1.40;;;;;;;-3.10;50.34;92493.94;6150340;23;20020;-74
2021/11/30 07:08:54;;;;;;;1.33;1.10;;;;;;;-2.89;50.68;92500.56;6149927;23;20059;-74
2021/11/30 07:14:05;;;;;;;1.30;1.20;;;;;;;1.98;40.99;92507.88;6103710;23;20024;-75
2021/11/30 07:16:32;;;;;;;1.10;1.00;;;;;;;4.20;38.65;92498.28;6123428;23;20326;-75
2021/11/30 07:18:58;;;;;;;0.95;0.90;;;;;;;5.89;33.76;92495.81;6123208;22;20013;-75
2021/11/30 07:21:27;;;;;;;1.35;1.02;;;;;;;7.33;31.22;92499.19;6149087;23;20001;-75
2021/11/30 07:23:54;;;;;;;1.13;0.80;;;;;;;8.57;29.81;92498.28;6149482;23;20018;-75
2021/11/30 07:26:20;;;;;;;1.23;0.98;;;;;;;9.52;28.21;92499.47;6148924;23;20051;-76
2021/11/30 07:28:46;;;;;;;0.77;0.73;;;;;;;10.63;26.39;92498.31;6148051;23;20403;-75
2021/11/30 07:31:12;;;;;;;1.30;1.00;;;;;;;11.65;24.64;92498.38;6098072;23;20437;-76
2021/11/30 07:33:42;;;;;;;0.85;0.80;;;;;;;12.56;23.44;92496.78;6123195;23;20044;-76
2021/11/30 07:36:11;;;;;;;1.27;1.00;;;;;;;13.42;21.13;92493.19;6148347;23;20461;-76
2021/11/30 07:38:42;;;;;;;0.75;0.75;;;;;;;14.26;21.21;92490.63;6122552;23;19997;-76
2021/11/30 07:41:09;;;;;;;1.33;1.00;;;;;;;14.92;20.63;92491.25;6122701;23;20024;-76
2021/11/30 07:43:35;;;;;;;0.70;0.70;;;;;;;15.88;19.43;92501.56;6148825;23;20009;-76
2021/11/30 07:46:02;;;;;;;3.17;1.52;;;;;;;16.16;18.12;92496.56;6122431;23;20013;-77
2021/11/30 07:48:28;;;;;;;4.15;0.90;;;;;;;16.74;18.34;92507.38;6148361;23;20001;-77
2021/11/30 07:50:56;;;;;;;0.88;0.80;;;;;;;17.48;17.03;92505.00;6122649;23;20455;-77
2021/11/30 07:53:22;;;;;;;1.08;0.80;;;;;;;17.83;17.11;92508.06;6148946;23;20002;-77
2021/11/30 07:55:49;;;;;;;1.88;1.00;;;;;;;18.67;16.34;92506.78;6148777;23;20495;-77
2021/11/30 07:58:15;;;;;;;0.75;0.60;;;;;;;18.99;15.76;92506.94;6148056;23;20018;-77
2021/11/30 08:00:41;;;;;;;0.73;0.73;;;;;;;19.64;15.10;92504.84;6097970;23;20020;-77
2021/11/30 08:03:06;;;;;;;0.70;0.70;;;;;;;19.73;14.79;92497.50;6148784;23;20014;-78
2021/11/30 08:05:33;;;;;;;0.85;0.80;;;;;;;20.00;15.74;92500.41;6148558;23;20013;-78
2021/11/30 08:07:59;;;;;;;0.98;0.75;;;;;;;20.57;14.41;92501.69;6122886;23;20085;-78
2021/11/30 08:10:28;;;;;;;1.08;0.85;;;;;;;20.65;14.07;92496.53;6121902;23;20067;-77
2021/11/30 08:12:54;;;;;;;0.60;0.60;;;;;;;21.46;13.89;92495.84;6122585;23;20005;-78
2021/11/30 08:15:20;;;;;;;1.73;0.90;;;;;;;21.22;13.57;92497.66;6148510;23;20014;-78
2021/11/30 08:17:46;;;;;;;1.25;0.85;;;;;;;21.58;14.41;92496.44;6122389;23;20100;-78
2021/11/30 08:20:12;;;;;;;1.48;1.00;;;;;;;22.45;14.11;92498.59;6148520;22;20013;-78
2021/11/30 08:22:40;;;;;;;1.33;1.00;;;;;;;23.14;13.49;92500.25;6121753;23;20028;-79
2021/11/30 08:25:07;;;;;;;1.25;1.00;;;;;;;23.32;12.82;92506.56;6146911;23;20032;-79
2021/11/30 08:27:33;;;;;;;1.92;0.90;;;;;;;23.59;12.26;92495.78;6122099;23;19998;-78
2021/11/30 08:29:59;;;;;;;0.70;0.70;;;;;;;23.77;11.55;92502.06;6148339;23;20149;-78
2021/11/30 08:32:25;;;;;;;1.00;0.80;;;;;;;23.52;11.28;92501.81;6148293;23;20365;-78
2021/11/30 08:34:53;;;;;;;1.40;0.82;;;;;;;23.70;11.55;92500.06;6098632;23;20032;-78
2021/11/30 08:37:19;;;;;;;1.75;0.85;;;;;;;23.51;11.38;92497.63;6122828;23;20029;-78
2021/11/30 08:39:49;;;;;;;1.23;0.90;;;;;;;23.73;10.97;92495.91;6147428;23;20013;-78
2021/11/30 08:42:17;;;;;;;0.93;0.73;;;;;;;23.80;10.61;92485.31;6123368;23;20051;-81
2021/11/30 08:44:43;;;;;;;3.80;0.70;;;;;;;23.24;11.56;92491.63;6124687;23;20637;-82
2021/11/30 08:47:11;;;;;;;2.92;1.58;;;;;;;21.13;13.58;92494.47;6123074;23;20025;-79
2021/11/30 08:49:37;;;;;;;2.33;1.10;;;;;;;19.22;14.18;92494.66;6099249;23;20047;-79
2021/11/30 08:52:05;;;;;;;3.33;1.25;;;;;;;17.53;17.37;92499.50;6148578;23;20021;-79
2021/11/30 08:54:33;;;;;;;2.45;1.40;;;;;;;16.67;17.48;92507.13;6149599;23;20246;-78
2021/11/30 08:56:59;;;;;;;2.33;1.25;;;;;;;14.45;18.91;92506.13;6120620;23;20244;-79
2021/11/30 08:59:25;;;;;;;4.13;1.45;;;;;;;13.21;20.63;92505.25;6124484;23;20021;-79
2021/11/30 09:01:51;;;;;;;2.15;1.15;;;;;;;11.99;22.04;92506.94;6150547;23;20026;-77
2021/11/30 09:04:17;;;;;;;3.70;1.35;;;;;;;11.76;22.84;92506.06;6126744;23;20008;-79
2021/11/30 09:06:43;;;;;;;2.53;1.10;;;;;;;10.79;23.19;92508.56;6150527;23;20080;-78
2021/11/30 09:09:09;;;;;;;5.07;2.08;;;;;;;10.15;27.41;92521.22;6150157;23;20419;-78
2021/11/30 09:11:36;;;;;;;3.60;1.80;;;;;;;10.22;27.67;92516.41;6149620;23;20021;-79
2021/11/30 09:14:03;;;;;;;28.38;15.25;;;;;;;9.89;27.66;92520.78;6147599;23;20029;-78
2021/11/30 09:16:29;;;;;;;6.20;2.92;;;;;;;10.03;27.22;92515.63;6149505;23;20028;-77
2021/11/30 09:18:56;;;;;;;4.57;1.88;;;;;;;10.27;27.02;92523.41;6123583;23;20006;-78
2021/11/30 09:21:22;;;;;;;1.80;1.10;;;;;;;10.46;25.15;92526.84;6149389;23;20017;-78
2021/11/30 09:23:47;;;;;;;1.40;0.80;;;;;;;10.54;21.88;92526.22;6149720;23;20039;-78
2021/11/30 09:26:13;;;;;;;1.05;0.80;;;;;;;10.67;21.44;92529.91;6123748;23;20016;-78
2021/11/30 09:28:39;;;;;;;2.05;0.82;;;;;;;10.51;21.70;92534.59;6149142;23;20047;-78
2021/11/30 09:31:06;;;;;;;1.25;0.70;;;;;;;10.29;22.79;92539.63;6123304;22;20028;-77
2021/11/30 09:33:31;;;;;;;0.50;0.50;;;;;;;10.15;22.60;92532.44;6122739;23;20009;-78
2021/11/30 09:35:57;;;;;;;1.05;0.70;;;;;;;10.16;22.75;92533.25;6148580;23;20591;-78
2021/11/30 09:38:23;;;;;;;0.40;0.40;;;;;;;10.05;24.43;92532.59;6148170;23;20025;-77
2021/11/30 09:40:51;;;;;;;0.75;0.75;;;;;;;10.06;23.29;92536.75;6122771;22;20364;-78
2021/11/30 09:43:18;;;;;;;3.38;0.93;;;;;;;9.99;22.55;92521.41;6122437;23;20009;-78
2021/11/30 09:45:44;;;;;;;0.68;0.60;;;;;;;9.95;21.97;92517.81;6147367;23;20353;-78
2021/11/30 09:48:11;;;;;;;1.15;0.85;;;;;;;9.29;22.90;92523.78;6148707;23;19998;-78
2021/11/30 09:50:40;;;;;;;0.90;0.80;;;;;;;9.66;22.85;92517.91;6147618;23;20458;-78
2021/11/30 09:53:06;;;;;;;2.53;0.95;;;;;;;9.86;24.17;92523.94;6123509;23;20472;-78
2021/11/30 09:55:32;;;;;;;0.93;0.63;;;;;;;9.43;23.22;92516.81;6122666;23;20453;-78
2021/11/30 09:57:58;;;;;;;1.63;0.90;;;;;;;9.58;23.24;92511.44;6148370;22;20041;-78
2021/11/30 10:00:25;;;;;;;1.60;0.85;;;;;;;9.68;23.93;92507.94;6122948;23;20013;-77
2021/11/30 10:02:51;;;;;;;1.63;0.90;;;;;;;9.90;22.86;92509.25;6148585;23;20021;-77
2021/11/30 10:05:18;;;;;;;1.52;1.00;;;;;;;9.75;22.91;92503.16;6148634;23;20009;-79
2021/11/30 10:07:48;;;;;;;0.60;0.60;;;;;;;9.58;22.13;92510.66;6147513;22;20424;-78
2021/11/30 10:10:37;;;;;;;1.15;0.75;;;;;;;9.06;22.29;92509.63;6146906;23;20091;-78
2021/11/30 10:13:02;;;;;;;8.52;3.55;;;;;;;8.09;23.67;92505.91;6148057;23;20085;-78
2021/11/30 10:15:30;;;;;;;3.38;1.50;;;;;;;7.29;27.86;92507.53;6148304;23;20025;-77
2021/11/30 10:18:17;;;;;;;1.80;0.88;;;;;;;7.43;25.04;92512.16;6147891;23;20457;-76
2021/11/30 10:20:44;;;;;;;0.98;0.80;;;;;;;7.93;23.76;92505.19;6148247;23;20043;-77
2021/11/30 10:23:12;;;;;;;6.38;3.03;;;;;;;8.37;25.88;92499.19;6148609;23;20095;-77
2021/11/30 10:25:41;;;;;;;8.38;3.95;;;;;;;8.00;28.04;92494.47;6148294;23;20020;-76
2021/11/30 10:28:14;;;;;;;1.90;1.15;;;;;;;8.61;26.37;92504.53;6149006;23;20060;-77
2021/11/30 10:30:50;;;;;;;3.42;1.73;;;;;;;8.32;28.29;92494.00;6148721;23;20395;-77
2021/11/30 10:33:19;;;;;;;3.95;1.60;;;;;;;7.47;31.96;92493.13;6148156;23;20486;-77
2021/11/30 10:35:50;;;;;;;3.67;1.42;;;;;;;6.99;30.68;92492.75;6148142;23;20420;-76
2021/11/30 10:38:15;;;;;;;23.85;9.40;;;;;;;6.50;33.45;92487.34;6146922;23;20021;-76
2021/11/30 10:40:41;;;;;;;4.00;1.85;;;;;;;6.35;32.12;92482.91;6148110;23;20006;-76
2021/11/30 10:43:10;;;;;;;2.45;1.42;;;;;;;6.70;31.91;92476.91;6148805;23;20013;-77
2021/11/30 10:45:42;;;;;;;10.48;6.68;;;;;;;6.58;31.99;92473.81;6148253;23;20092;-77
2021/11/30 10:48:16;;;;;;;;;;;;;;;6.61;27.52;92475.91;6149268;23;20069;-76
2021/11/30 10:50:51;;;;;;;2.60;1.45;;;;;;;7.10;28.09;92462.28;6122692;23;19983;-77
2021/11/30 10:53:34;;;;;;;4.53;2.63;;;;;;;7.13;30.05;92463.56;6148559;23;20441;-77
2021/11/30 10:56:05;;;;;;;3.70;2.00;;;;;;;6.99;29.85;92461.53;6147637;23;20014;-77
2021/11/30 10:58:41;;;;;;;3.42;1.77;;;;;;;7.32;31.17;92456.75;6147977;23;20013;-77
2021/11/30 11:01:17;;;;;;;2.45;1.40;;;;;;;7.07;32.07;92457.63;6122241;23;20357;-76
2021/11/30 11:03:43;;;;;;;3.28;1.50;;;;;;;7.01;33.05;92461.25;6149650;23;20360;-77
2021/11/30 11:09:01;;;;;;;2.67;1.30;;;;;;;7.47;31.90;92455.91;6151467;23;20025;-76
2021/11/30 11:11:33;;;;;;;3.13;1.38;;;;;;;7.20;33.45;92472.66;6148938;23;20036;-76
2021/11/30 11:14:00;;;;;;;5.57;1.38;;;;;;;7.48;32.22;92467.88;6122702;23;20017;-77
2021/11/30 11:16:36;;;;;;;3.15;1.60;;;;;;;8.13;32.68;92468.59;6122646;23;20089;-76
2021/11/30 11:19:07;;;;;;;5.57;1.60;;;;;;;8.79;30.82;92463.94;6122684;22;20039;-77
2021/11/30 11:21:40;;;;;;;5.72;2.65;;;;;;;8.37;31.52;92452.22;6149624;23;20020;-76
2021/11/30 11:24:17;;;;;;;4.47;2.20;;;;;;;7.80;32.74;92458.88;6147845;23;20579;-77
2021/11/30 11:26:43;;;;;;;7.78;1.60;;;;;;;7.47;33.29;92461.09;6147060;23;20009;-77
2021/11/30 11:29:12;;;;;;;3.25;1.38;;;;;;;7.29;33.49;92468.47;6148425;23;20001;-76
2021/11/30 11:31:40;;;;;;;1.92;1.35;;;;;;;6.94;34.22;92463.38;6147644;23;20449;-77
2021/11/30 11:34:07;;;;;;;3.20;1.55;;;;;;;6.90;36.26;92459.72;6122064;23;20031;-76
2021/11/30 11:36:33;;;;;;;4.72;2.85;;;;;;;7.01;35.39;92450.84;6148684;23;20045;-76
2021/11/30 11:39:01;;;;;;;9.88;1.90;;;;;;;6.72;35.63;92448.81;6148239;23;20085;-77
2021/11/30 11:41:28;;;;;;;1.92;1.50;;;;;;;7.00;33.36;92449.28;6149158;22;20355;-76
2021/11/30 11:43:55;;;;;;;1.85;1.13;;;;;;;7.30;34.58;92441.38;6148538;23;19998;-77
2021/11/30 11:46:22;;;;;;;2.28;1.20;;;;;;;7.99;32.36;92445.97;6122076;23;20036;-77
2021/11/30 11:48:56;;;;;;;2.65;1.20;;;;;;;8.31;30.96;92441.06;6122308;23;20396;-78
2021/11/30 11:51:22;;;;;;;2.22;1.13;;;;;;;8.77;30.40;92439.94;6148913;23;20016;-77
2021/11/30 11:53:56;;;;;;;2.65;1.25;;;;;;;8.83;31.13;92436.22;6148811;23;20010;-78
2021/11/30 11:56:29;;;;;;;1.38;0.95;;;;;;;7.19;28.21;92428.69;6122191;23;20038;-77
2021/11/30 11:59:18;;;;;;;2.38;1.13;;;;;;;7.94;30.27;92425.94;6148930;23;20088;-78
2021/11/30 12:01:47;;;;;;;8.48;4.22;;;;;;;8.09;30.79;92418.03;6149156;23;20017;-77
2021/11/30 12:04:15;;;;;;;2.33;1.33;;;;;;;8.12;27.98;92425.28;6148711;23;20013;-78
2021/11/30 12:06:52;;;;;;;5.13;1.55;;;;;;;8.44;29.52;92425.88;6122013;23;20463;-77
2021/11/30 12:09:24;;;;;;;2.45;1.40;;;;;;;8.90;29.28;92423.63;6148562;23;20013;-77
2021/11/30 12:11:57;;;;;;;4.10;1.15;;;;;;;8.92;27.70;92424.13;6123324;23;20013;-79
2021/11/30 12:14:37;;;;;;;2.38;1.10;;;;;;;9.66;25.32;92408.13;6148587;23;20009;-78
2021/11/30 12:17:21;;;;;;;1.52;1.08;;;;;;;9.87;24.68;92413.84;6146772;22;20017;-78
2021/11/30 12:19:59;;;;;;;1.58;1.15;;;;;;;8.62;25.82;92416.59;6098607;23;20083;-79
2021/11/30 12:22:56;;;;;;;2.05;1.10;;;;;;;9.07;25.21;92410.13;6148574;23;20021;-77
2021/11/30 12:25:22;;;;;;;2.28;1.27;;;;;;;8.71;29.55;92410.50;6150170;23;20441;-78
2021/11/30 12:27:48;;;;;;;2.25;1.20;;;;;;;7.48;27.39;92395.72;6147597;23;20024;-78
2021/11/30 12:30:38;;;;;;;1.95;0.98;;;;;;;6.87;27.48;92396.00;6149583;23;20009;-77
2021/11/30 12:33:07;;;;;;;2.28;1.30;;;;;;;7.99;27.09;92391.25;6123534;23;20471;-78
2021/11/30 12:35:50;;;;;;;3.42;1.20;;;;;;;8.74;27.59;92396.91;6149437;23;20008;-78
2021/11/30 12:38:26;;;;;;;2.13;1.23;;;;;;;8.79;25.76;92393.47;6149557;23;20018;-78
2021/11/30 12:40:53;;;;;;;1.35;1.00;;;;;;;6.95;25.78;92389.44;6149184;23;20096;-77
2021/11/30 12:43:23;;;;;;;1.58;1.02;;;;;;;7.08;27.05;92386.28;6148689;23;20452;-78
2021/11/30 12:46:02;;;;;;;1.77;1.10;;;;;;;7.45;28.33;92391.06;6148468;23;20093;-78
2021/11/30 12:48:37;;;;;;;2.65;1.05;;;;;;;7.67;26.78;92393.25;6150190;23;20081;-77
2021/11/30 12:51:35;;;;;;;1.20;0.93;;;;;;;7.83;27.43;92390.56;6123496;23;20013;-78
2021/11/30 12:54:04;;;;;;;1.83;1.08;;;;;;;8.21;27.17;92396.03;6168665;23;20329;-77
2021/11/30 12:56:52;;;;;;;1.42;0.93;;;;;;;8.57;28.19;92388.72;6151029;23;20425;-77
2021/11/30 12:59:55;;;;;;;1.65;1.10;;;;;;;9.04;26.88;92383.81;6155917;22;20068;-77
2021/11/30 13:02:27;;;;;;;2.30;1.23;;;;;;;8.46;28.02;92387.25;6100636;23;20009;-77
2021/11/30 13:05:18;;;;;;;3.08;1.30;;;;;;;8.43;27.89;92385.97;6151383;23;20013;-77
2021/11/30 13:07:47;;;;;;;1.90;1.30;;;;;;;7.99;27.44;92391.25;6124858;23;20017;-77
2021/11/30 13:10:47;;;;;;;1.67;1.15;;;;;;;8.39;28.28;92389.38;6125235;23;20025;-77
2021/11/30 13:13:22;;;;;;;2.75;1.23;;;;;;;8.79;27.00;92380.41;6150823;22;20013;-77
2021/11/30 13:15:57;;;;;;;2.42;1.30;;;;;;;9.10;26.88;92380.09;6151042;23;20430;-77
2021/11/30 13:21:46;;;;;;;2.65;0.98;;;;;;;8.96;26.72;92383.38;6125398;23;20013;-77
2021/11/30 13:24:14;;;;;;;1.80;1.27;;;;;;;8.85;25.43;92374.09;6100429;23;20012;-77
2021/11/30 13:26:42;;;;;;;2.25;1.38;;;;;;;8.78;27.45;92378.06;6151448;23;20344;-77
2021/11/30 13:29:21;;;;;;;3.10;1.50;;;;;;;7.93;27.11;92367.81;6150937;23;20340;-77
2021/11/30 13:32:00;;;;;;;6.55;2.20;;;;;;;7.66;28.14;92355.25;6151216;23;20071;-77
2021/11/30 13:34:25;;;;;;;3.33;1.77;;;;;;;7.85;28.01;92357.97;6152044;23;20391;-77
2021/11/30 13:36:51;;;;;;;7.75;3.83;;;;;;;7.79;29.43;92358.28;6151040;23;20009;-76
2021/11/30 13:39:16;;;;;;;4.13;2.08;;;;;;;7.72;29.63;92366.41;6125021;23;20261;-76
2021/11/30 13:41:42;;;;;;;3.53;1.58;;;;;;;8.02;29.09;92356.84;6151427;23;20018;-77
2021/11/30 13:44:07;;;;;;;4.63;1.50;;;;;;;7.92;29.02;92358.47;6151642;23;20005;-77
2021/11/30 13:46:38;;;;;;;3.05;1.58;;;;;;;7.86;29.42;92361.38;6151126;23;20401;-77
2021/11/30 13:49:06;;;;;;;5.18;1.65;;;;;;;7.35;29.92;92353.88;6150610;23;20400;-76
2021/11/30 13:51:35;;;;;;;4.88;2.50;;;;;;;7.35;31.05;92343.47;6124930;23;20013;-77
2021/11/30 13:54:04;;;;;;;5.88;2.65;;;;;;;7.66;30.51;92344.81;6151628;22;20013;-77
2021/11/30 13:56:43;;;;;;;3.90;1.40;;;;;;;8.26;32.26;92352.47;6160951;23;20001;-77
2021/11/30 14:02:17;;;;;;;3.45;1.42;;;;;;;8.80;29.59;92348.00;6150021;23;20079;-77
2021/11/30 14:04:43;;;;;;;2.22;1.42;;;;;;;7.67;27.32;92354.19;6123828;23;20391;-76
2021/11/30 14:07:09;;;;;;;2.13;1.30;;;;;;;7.87;28.89;92353.28;6124507;23;20564;-77
2021/11/30 14:09:43;;;;;;;5.35;2.67;;;;;;;7.59;30.47;92352.16;6149857;23;20013;-77
2021/11/30 14:12:12;;;;;;;4.10;1.65;;;;;;;7.56;31.66;92355.31;6124707;23;20021;-77
2021/11/30 14:14:44;;;;;;;5.55;1.80;;;;;;;7.44;30.34;92352.25;6124044;23;20033;-77
2021/11/30 14:17:17;;;;;;;7.20;1.70;;;;;;;7.35;31.30;92357.25;6149847;23;20021;-77
2021/11/30 14:19:44;;;;;;;3.28;1.63;;;;;;;7.37;31.19;92362.19;6123916;23;20013;-76
2021/11/30 14:22:19;;;;;;;4.25;2.13;;;;;;;7.54;31.05;92357.41;6149825;23;20036;-76
2021/11/30 14:24:59;;;;;;;5.57;2.55;;;;;;;6.81;31.65;92361.38;6123975;23;20013;-76
2021/11/30 14:27:48;;;;;;;7.25;2.47;;;;;;;6.92;32.95;92363.97;6149904;23;20441;-76
2021/11/30 14:30:23;;;;;;;4.35;1.60;;;;;;;6.61;31.22;92364.03;6149600;22;20096;-76
2021/11/30 14:33:20;;;;;;;2.63;1.42;;;;;;;7.14;36.88;92366.19;6150594;23;20013;-76
2021/11/30 14:35:51;;;;;;;2.65;1.45;;;;;;;7.61;35.57;92357.91;6157321;23;20060;-76
2021/11/30 14:38:27;;;;;;;2.60;1.15;;;;;;;7.81;34.66;92367.38;6151029;23;20020;-76
2021/11/30 14:41:13;;;;;;;2.30;1.30;;;;;;;7.41;35.85;92358.78;6124880;23;20357;-76
2021/11/30 14:43:40;;;;;;;2.22;1.30;;;;;;;7.31;36.30;92364.03;6124898;23;20014;-76
2021/11/30 14:46:07;;;;;;;3.70;1.50;;;;;;;7.36;35.08;92369.22;6149854;23;20088;-77
2021/11/30 14:48:36;;;;;;;6.25;1.83;;;;;;;6.84;35.49;92360.84;6121895;23;20437;-76
2021/11/30 14:51:05;;;;;;;2.83;1.40;;;;;;;6.45;36.96;92364.06;6148155;23;20002;-77
2021/11/30 14:53:32;;;;;;;3.95;1.50;;;;;;;6.14;37.10;92367.75;6147535;23;20492;-76
2021/11/30 14:55:59;;;;;;;3.85;1.95;;;;;;;5.82;39.49;92366.94;6147858;23;20444;-77
2021/11/30 14:58:26;;;;;;;6.68;2.00;;;;;;;5.47;42.24;92370.31;6147287;23;20052;-76
2021/11/30 15:01:13;;;;;;;3.92;1.58;;;;;;;5.11;42.38;92364.22;6147936;22;20084;-77
2021/11/30 15:03:42;;;;;;;3.42;1.60;;;;;;;4.82;41.54;92377.63;6147678;23;20387;-76
2021/11/30 15:06:18;;;;;;;3.83;1.48;;;;;;;4.59;41.65;92371.00;6122254;23;20029;-77
2021/11/30 15:08:51;;;;;;;5.15;2.47;;;;;;;4.42;40.35;92386.75;6122646;23;20058;-77
2021/11/30 15:11:23;;;;;;;3.55;1.80;;;;;;;4.28;41.82;92370.84;6121822;22;20014;-77
2021/11/30 15:13:55;;;;;;;2.55;1.38;;;;;;;4.15;40.98;92381.66;6148700;23;20014;-77
2021/11/30 15:16:36;;;;;;;2.25;1.30;;;;;;;4.00;40.68;92379.72;6148278;23;20465;-77
2021/11/30 15:19:11;;;;;;;1.73;1.20;;;;;;;3.85;40.78;92367.44;6148577;23;20014;-77
2021/11/30 15:21:40;;;;;;;3.47;1.35;;;;;;;3.71;42.26;92372.25;6122011;23;20013;-78
2021/11/30 15:24:06;;;;;;;4.80;2.50;;;;;;;3.58;43.28;92359.72;6148415;23;20005;-76
2021/11/30 15:26:36;;;;;;;3.25;1.70;;;;;;;3.46;43.36;92359.09;6148031;23;20016;-75
2021/11/30 15:29:05;;;;;;;3.20;1.48;;;;;;;3.37;43.72;92356.16;6148070;23;20017;-76
2021/11/30 15:31:50;;;;;;;3.17;1.33;;;;;;;3.22;42.49;92343.88;6123308;23;20009;-76
2021/11/30 15:34:16;;;;;;;5.32;2.40;;;;;;;3.05;43.03;92338.78;6149876;23;20071;-77
2021/11/30 15:36:43;;;;;;;3.30;1.70;;;;;;;2.98;44.75;92345.16;6148684;23;20005;-76
2021/11/30 15:39:14;;;;;;;2.28;1.30;;;;;;;2.91;43.72;92342.78;6148398;23;20014;-76
2021/11/30 15:41:40;;;;;;;2.85;1.40;;;;;;;2.80;43.85;92339.28;6148215;23;20049;-76
2021/11/30 15:44:06;;;;;;;3.85;1.40;;;;;;;2.65;44.28;92342.47;6148477;23;20002;-76
2021/11/30 15:46:33;;;;;;;2.45;1.30;;;;;;;2.56;45.17;92345.72;6122497;23;20325;-77
2021/11/30 15:48:59;;;;;;;4.80;2.20;;;;;;;2.43;45.20;92342.47;6147803;23;20028;-77
2021/11/30 15:51:28;;;;;;;6.72;3.20;;;;;;;2.34;46.84;92345.69;6147488;23;20349;-78
2021/11/30 15:53:55;;;;;;;5.60;2.08;;;;;;;2.27;46.62;92343.28;6148112;23;20043;-78
2021/11/30 15:59:05;;;;;;;3.13;1.42;;;;;;;2.10;47.35;92342.56;6148071;23;20093;-76
2021/11/30 16:01:32;;;;;;;8.90;3.15;;;;;;;2.06;46.67;92343.00;6148834;23;20045;-77
2021/11/30 16:03:57;;;;;;;9.30;4.38;;;;;;;2.01;46.66;92342.16;6149947;23;20089;-78
2021/11/30 16:06:23;;;;;;;6.22;2.88;;;;;;;1.91;46.34;92339.44;6098316;23;20109;-79
2021/11/30 16:08:49;;;;;;;7.60;4.10;;;;;;;1.80;47.99;92334.13;6122212;23;20441;-77
2021/11/30 16:11:17;;;;;;;5.10;2.35;;;;;;;1.72;47.87;92339.69;6121777;23;20048;-78
2021/11/30 16:13:48;;;;;;;3.88;1.77;;;;;;;1.64;48.05;92340.06;6145398;23;20106;-77
2021/11/30 16:16:15;;;;;;;4.78;2.33;;;;;;;1.54;47.42;92342.50;6098430;23;20082;-77
2021/11/30 16:18:42;;;;;;;7.43;4.18;;;;;;;1.52;48.61;92336.78;6124822;22;20017;-78
2021/11/30 16:21:08;;;;;;;8.00;3.63;;;;;;;1.39;49.63;92332.69;6122411;23;20013;-77
2021/11/30 16:23:33;;;;;;;5.88;2.50;;;;;;;1.37;48.90;92339.88;6123333;23;20017;-77
2021/11/30 16:25:59;;;;;;;3.35;1.88;;;;;;;1.31;48.38;92331.31;6098676;23;20120;-77
2021/11/30 16:28:25;;;;;;;3.60;1.60;;;;;;;1.25;47.22;92333.00;6123553;23;20110;-78
2021/11/30 16:31:10;;;;;;;4.38;1.40;;;;;;;1.18;47.28;92331.59;6152717;22;19997;-78
2021/11/30 16:33:38;;;;;;;5.10;2.85;;;;;;;1.12;47.67;92333.28;6125377;23;20014;-78
2021/11/30 16:36:05;;;;;;;4.13;2.15;;;;;;;1.08;48.45;92339.13;6102160;23;20009;-78
2021/11/30 16:38:30;;;;;;;2.88;1.60;;;;;;;1.02;49.08;92333.13;6153549;23;20469;-79
2021/11/30 16:40:57;;;;;;;6.10;3.42;;;;;;;0.97;48.45;92328.66;6125379;23;20026;-78
2021/11/30 16:43:24;;;;;;;4.88;2.85;;;;;;;0.91;49.70;92332.16;6150606;23;20147;-78
2021/11/30 16:45:50;;;;;;;3.42;2.08;;;;;;;0.87;49.41;92340.56;6149452;23;20005;-78
2021/11/30 16:48:15;;;;;;;3.20;1.52;;;;;;;0.82;48.76;92338.69;6148665;23;20029;-78
2021/11/30 16:50:42;;;;;;;2.10;1.40;;;;;;;0.77;48.45;92343.75;6148103;23;20005;-77
2021/11/30 16:53:10;;;;;;;19.73;6.97;;;;;;;0.74;49.93;92337.25;6149811;23;20085;-77
2021/11/30 16:55:37;;;;;;;10.50;3.95;;;;;;;0.68;50.63;92339.97;6149168;23;20450;-77
2021/11/30 16:58:07;;;;;;;9.23;2.22;;;;;;;0.64;49.70;92344.03;6146859;22;20021;-77
2021/11/30 17:00:38;;;;;;;3.53;1.80;;;;;;;0.62;49.16;92334.72;6148605;23;20093;-77
2021/11/30 17:03:05;;;;;;;4.25;1.92;;;;;;;0.58;50.43;92338.75;6123759;23;20018;-78
2021/11/30 17:05:31;;;;;;;2.70;1.70;;;;;;;0.53;50.16;92333.50;6126077;23;19998;-77
2021/11/30 17:07:57;;;;;;;5.07;1.70;;;;;;;0.53;49.52;92343.81;6126824;23;20096;-77
2021/11/30 17:11:01;;;;;;;4.00;1.88;;;;;;;0.55;51.21;92339.22;6152138;23;20392;-78
2021/11/30 17:13:27;;;;;;;3.95;1.60;;;;;;;0.50;52.02;92340.94;6151896;23;20016;-78
2021/11/30 17:16:17;;;;;;;2.50;1.20;;;;;;;0.44;51.10;92341.81;6102882;23;20009;-78
2021/11/30 17:18:43;;;;;;;1.52;1.08;;;;;;;0.40;50.40;92336.34;6127353;23;20045;-78
2021/11/30 17:21:09;;;;;;;1.38;1.13;;;;;;;0.38;50.39;92343.50;6153376;23;20001;-77
2021/11/30 17:23:51;;;;;;;2.83;1.23;;;;;;;0.35;51.03;92338.81;6126263;23;20006;-77
2021/11/30 17:26:49;;;;;;;3.03;1.35;;;;;;;0.34;51.22;92350.13;6143182;23;20086;-77
2021/11/30 17:29:16;;;;;;;1.48;1.05;;;;;;;0.29;52.84;92352.59;6154987;23;20020;-78
2021/11/30 17:31:42;;;;;;;5.43;2.03;;;;;;;0.26;52.85;92340.97;6129046;23;20058;-78
2021/11/30 17:34:26;;;;;;;7.38;2.35;;;;;;;0.19;52.49;92346.22;6152624;23;20040;-78
2021/11/30 17:36:53;;;;;;;5.65;2.40;;;;;;;0.17;51.64;92350.81;6151378;23;20086;-78
2021/11/30 17:39:19;;;;;;;4.13;2.17;;;;;;;0.17;53.10;92348.25;6152266;23;20214;-78
2021/11/30 17:41:44;;;;;;;2.85;1.60;;;;;;;0.13;53.29;92352.25;6152851;23;20018;-78
2021/11/30 17:44:10;;;;;;;4.97;2.08;;;;;;;0.11;53.40;92348.34;6127352;23;20421;-78
2021/11/30 17:47:14;;;;;;;3.33;1.88;;;;;;;0.08;52.08;92344.44;6153183;23;20445;-78
2021/11/30 17:49:40;;;;;;;15.48;7.85;;;;;;;0.06;52.88;92341.31;6152009;23;20059;-79
2021/11/30 17:52:43;;;;;;;57.85;28.88;;;;;;;0.05;52.28;92344.13;6125683;23;20001;-78
2021/11/30 17:55:10;;;;;;;40.95;20.10;;;;;;;0.11;52.89;92345.78;6125579;23;20013;-77
2021/11/30 17:57:37;;;;;;;13.88;6.63;;;;;;;0.11;54.70;92348.34;6119313;23;20018;-78
2021/11/30 18:00:08;;;;;;;13.85;6.95;;;;;;;0.04;54.41;92358.75;6120543;23;20018;-77
2021/11/30 18:02:35;;;;;;;14.45;6.63;;;;;;;-0.01;53.97;92350.94;6119993;23;20364;-77
2021/11/30 18:05:04;;;;;;;13.27;6.25;;;;;;;-0.01;54.53;92356.88;6120027;23;20421;-76
2021/11/30 18:07:30;;;;;;;10.00;4.63;;;;;;;-0.03;54.72;92363.25;6122591;23;20014;-77